sensor_id;sensor_type;location;lat;lon;timestamp;pressure;altitude;pressure_sealevel;temperature
20103;BMP180;10210;52.284;9.892;2023-07-28T00:02:06;99307.00;;;22.50
20103;BMP180;10210;52.284;9.892;2023-07-28T00:04:34;99316.00;;;22.40
20103;BMP180;10210;52.284;9.892;2023-07-28T00:07:01;99310.00;;;22.40
20103;BMP180;10210;52.284;9.892;2023-07-28T00:09:26;99315.00;;;22.40
20103;BMP180;10210;52.284;9.892;2023-07-28T00:11:52;99313.00;;;22.40
20103;BMP180;10210;52.284;9.892;2023-07-28T00:14:18;99313.00;;;22.40
20103;BMP180;10210;52.284;9.892;2023-07-28T00:16:44;99320.00;;;22.40
20103;BMP180;10210;52.284;9.892;2023-07-28T00:19:09;99309.00;;;22.40
20103;BMP180;10210;52.284;9.892;2023-07-28T00:21:35;99310.00;;;22.40
20103;BMP180;10210;52.284;9.892;2023-07-28T00:24:01;99309.00;;;22.40
20103;BMP180;10210;52.284;9.892;2023-07-28T00:26:26;99309.00;;;22.50
20103;BMP180;10210;52.284;9.892;2023-07-28T00:28:52;99306.00;;;22.40
20103;BMP180;10210;52.284;9.892;2023-07-28T00:31:18;99315.00;;;22.50
20103;BMP180;10210;52.284;9.892;2023-07-28T00:33:43;99319.00;;;22.40
20103;BMP180;10210;52.284;9.892;2023-07-28T00:36:09;99311.00;;;22.40
20103;BMP180;10210;52.284;9.892;2023-07-28T00:38:34;99329.00;;;22.50
20103;BMP180;10210;52.284;9.892;2023-07-28T00:41:00;99307.00;;;22.40
20103;BMP180;10210;52.284;9.892;2023-07-28T00:43:26;99309.00;;;22.40
20103;BMP180;10210;52.284;9.892;2023-07-28T00:45:52;99312.00;;;22.40
20103;BMP180;10210;52.284;9.892;2023-07-28T00:48:18;99321.00;;;22.40
20103;BMP180;10210;52.284;9.892;2023-07-28T00:50:48;99312.00;;;22.40
20103;BMP180;10210;52.284;9.892;2023-07-28T00:53:15;99317.00;;;22.40
20103;BMP180;10210;52.284;9.892;2023-07-28T00:55:42;99323.00;;;22.40
20103;BMP180;10210;52.284;9.892;2023-07-28T00:58:11;99325.00;;;22.40
20103;BMP180;10210;52.284;9.892;2023-07-28T01:00:37;99321.00;;;22.40
20103;BMP180;10210;52.284;9.892;2023-07-28T01:03:03;99323.00;;;22.40
20103;BMP180;10210;52.284;9.892;2023-07-28T01:05:44;99315.00;;;22.40
20103;BMP180;10210;52.284;9.892;2023-07-28T01:08:40;99318.00;;;22.40
20103;BMP180;10210;52.284;9.892;2023-07-28T01:11:07;99316.00;;;22.40
20103;BMP180;10210;52.284;9.892;2023-07-28T01:13:33;99309.00;;;22.40
20103;BMP180;10210;52.284;9.892;2023-07-28T01:15:58;99310.00;;;22.40
20103;BMP180;10210;52.284;9.892;2023-07-28T01:18:27;99304.00;;;22.40
20103;BMP180;10210;52.284;9.892;2023-07-28T01:20:57;99307.00;;;22.40
20103;BMP180;10210;52.284;9.892;2023-07-28T01:23:55;99305.00;;;22.40
20103;BMP180;10210;52.284;9.892;2023-07-28T01:26:36;99300.00;;;22.40
20103;BMP180;10210;52.284;9.892;2023-07-28T01:29:04;99310.00;;;22.40
20103;BMP180;10210;52.284;9.892;2023-07-28T01:31:30;99304.00;;;22.50
20103;BMP180;10210;52.284;9.892;2023-07-28T01:33:56;99308.00;;;22.50
20103;BMP180;10210;52.284;9.892;2023-07-28T01:36:21;99298.00;;;22.50
20103;BMP180;10210;52.284;9.892;2023-07-28T01:38:47;99296.00;;;22.50
20103;BMP180;10210;52.284;9.892;2023-07-28T01:41:13;99297.00;;;22.50
20103;BMP180;10210;52.284;9.892;2023-07-28T01:43:38;99298.00;;;22.50
20103;BMP180;10210;52.284;9.892;2023-07-28T01:46:04;99294.00;;;22.50
20103;BMP180;10210;52.284;9.892;2023-07-28T01:48:30;99297.00;;;22.50
20103;BMP180;10210;52.284;9.892;2023-07-28T01:50:55;99299.00;;;22.50
20103;BMP180;10210;52.284;9.892;2023-07-28T01:53:21;99300.00;;;22.50
20103;BMP180;10210;52.284;9.892;2023-07-28T01:55:47;99294.00;;;22.50
20103;BMP180;10210;52.284;9.892;2023-07-28T01:58:12;99305.00;;;22.50
20103;BMP180;10210;52.284;9.892;2023-07-28T02:00:38;99307.00;;;22.50
20103;BMP180;10210;52.284;9.892;2023-07-28T02:03:04;99307.00;;;22.50
20103;BMP180;10210;52.284;9.892;2023-07-28T02:05:31;99300.00;;;22.50
20103;BMP180;10210;52.284;9.892;2023-07-28T02:07:57;99306.00;;;22.50
20103;BMP180;10210;52.284;9.892;2023-07-28T02:10:23;99312.00;;;22.50
20103;BMP180;10210;52.284;9.892;2023-07-28T02:12:49;99308.00;;;22.50
20103;BMP180;10210;52.284;9.892;2023-07-28T02:15:17;99299.00;;;22.50
20103;BMP180;10210;52.284;9.892;2023-07-28T02:17:42;99297.00;;;22.50
20103;BMP180;10210;52.284;9.892;2023-07-28T02:20:08;99308.00;;;22.50
20103;BMP180;10210;52.284;9.892;2023-07-28T02:22:39;99305.00;;;22.50
20103;BMP180;10210;52.284;9.892;2023-07-28T02:25:05;99310.00;;;22.50
20103;BMP180;10210;52.284;9.892;2023-07-28T02:27:31;99306.00;;;22.50
20103;BMP180;10210;52.284;9.892;2023-07-28T02:29:57;99297.00;;;22.40
20103;BMP180;10210;52.284;9.892;2023-07-28T02:32:23;99288.00;;;22.40
20103;BMP180;10210;52.284;9.892;2023-07-28T02:34:49;99298.00;;;22.40
20103;BMP180;10210;52.284;9.892;2023-07-28T02:37:15;99293.00;;;22.40
20103;BMP180;10210;52.284;9.892;2023-07-28T02:39:41;99295.00;;;22.40
20103;BMP180;10210;52.284;9.892;2023-07-28T02:42:07;99292.00;;;22.40
20103;BMP180;10210;52.284;9.892;2023-07-28T02:44:33;99311.00;;;22.40
20103;BMP180;10210;52.284;9.892;2023-07-28T02:46:59;99310.00;;;22.40
20103;BMP180;10210;52.284;9.892;2023-07-28T02:49:24;99309.00;;;22.40
20103;BMP180;10210;52.284;9.892;2023-07-28T02:51:50;99319.00;;;22.40
20103;BMP180;10210;52.284;9.892;2023-07-28T02:54:16;99316.00;;;22.40
20103;BMP180;10210;52.284;9.892;2023-07-28T02:56:41;99319.00;;;22.40
20103;BMP180;10210;52.284;9.892;2023-07-28T02:59:07;99328.00;;;22.50
20103;BMP180;10210;52.284;9.892;2023-07-28T03:01:32;99339.00;;;22.50
20103;BMP180;10210;52.284;9.892;2023-07-28T03:04:00;99333.00;;;22.50
20103;BMP180;10210;52.284;9.892;2023-07-28T03:06:26;99339.00;;;22.50
20103;BMP180;10210;52.284;9.892;2023-07-28T03:08:52;99345.00;;;22.50
20103;BMP180;10210;52.284;9.892;2023-07-28T03:11:18;99336.00;;;22.50
20103;BMP180;10210;52.284;9.892;2023-07-28T03:13:43;99340.00;;;22.50
20103;BMP180;10210;52.284;9.892;2023-07-28T03:16:09;99343.00;;;22.50
20103;BMP180;10210;52.284;9.892;2023-07-28T03:18:35;99339.00;;;22.50
20103;BMP180;10210;52.284;9.892;2023-07-28T03:21:01;99343.00;;;22.50
20103;BMP180;10210;52.284;9.892;2023-07-28T03:23:27;99342.00;;;22.50
20103;BMP180;10210;52.284;9.892;2023-07-28T03:25:53;99346.00;;;22.50
20103;BMP180;10210;52.284;9.892;2023-07-28T03:28:18;99348.00;;;22.50
20103;BMP180;10210;52.284;9.892;2023-07-28T03:30:44;99340.00;;;22.50
20103;BMP180;10210;52.284;9.892;2023-07-28T03:33:11;99347.00;;;22.60
20103;BMP180;10210;52.284;9.892;2023-07-28T03:35:36;99340.00;;;22.50
20103;BMP180;10210;52.284;9.892;2023-07-28T03:38:02;99347.00;;;22.50
20103;BMP180;10210;52.284;9.892;2023-07-28T03:40:28;99347.00;;;22.50
20103;BMP180;10210;52.284;9.892;2023-07-28T03:42:54;99351.00;;;22.60
20103;BMP180;10210;52.284;9.892;2023-07-28T03:45:20;99353.00;;;22.50
20103;BMP180;10210;52.284;9.892;2023-07-28T03:47:45;99347.00;;;22.60
20103;BMP180;10210;52.284;9.892;2023-07-28T03:50:11;99363.00;;;22.60
20103;BMP180;10210;52.284;9.892;2023-07-28T03:52:37;99352.00;;;22.60
20103;BMP180;10210;52.284;9.892;2023-07-28T03:55:03;99353.00;;;22.60
20103;BMP180;10210;52.284;9.892;2023-07-28T03:57:29;99354.00;;;22.60
20103;BMP180;10210;52.284;9.892;2023-07-28T03:59:55;99364.00;;;22.60
20103;BMP180;10210;52.284;9.892;2023-07-28T04:02:20;99352.00;;;22.60
20103;BMP180;10210;52.284;9.892;2023-07-28T04:04:46;99365.00;;;22.50
20103;BMP180;10210;52.284;9.892;2023-07-28T04:07:12;99360.00;;;22.60
20103;BMP180;10210;52.284;9.892;2023-07-28T04:09:37;99365.00;;;22.60
20103;BMP180;10210;52.284;9.892;2023-07-28T04:12:04;99366.00;;;22.60
20103;BMP180;10210;52.284;9.892;2023-07-28T04:14:29;99368.00;;;22.50
20103;BMP180;10210;52.284;9.892;2023-07-28T04:16:55;99370.00;;;22.50
20103;BMP180;10210;52.284;9.892;2023-07-28T04:19:20;99366.00;;;22.50
20103;BMP180;10210;52.284;9.892;2023-07-28T04:21:46;99365.00;;;22.50
20103;BMP180;10210;52.284;9.892;2023-07-28T04:24:12;99369.00;;;22.50
20103;BMP180;10210;52.284;9.892;2023-07-28T04:26:37;99365.00;;;22.50
20103;BMP180;10210;52.284;9.892;2023-07-28T04:29:04;99369.00;;;22.50
20103;BMP180;10210;52.284;9.892;2023-07-28T04:31:29;99369.00;;;22.50
20103;BMP180;10210;52.284;9.892;2023-07-28T04:33:55;99373.00;;;22.50
20103;BMP180;10210;52.284;9.892;2023-07-28T04:36:21;99365.00;;;22.50
20103;BMP180;10210;52.284;9.892;2023-07-28T04:38:46;99368.00;;;22.50
20103;BMP180;10210;52.284;9.892;2023-07-28T04:41:12;99363.00;;;22.50
20103;BMP180;10210;52.284;9.892;2023-07-28T04:43:38;99364.00;;;22.50
20103;BMP180;10210;52.284;9.892;2023-07-28T04:46:03;99368.00;;;22.50
20103;BMP180;10210;52.284;9.892;2023-07-28T04:48:29;99367.00;;;22.50
20103;BMP180;10210;52.284;9.892;2023-07-28T04:50:55;99370.00;;;22.50
20103;BMP180;10210;52.284;9.892;2023-07-28T04:53:20;99373.00;;;22.40
20103;BMP180;10210;52.284;9.892;2023-07-28T04:55:46;99376.00;;;22.40
20103;BMP180;10210;52.284;9.892;2023-07-28T04:58:12;99374.00;;;22.40
20103;BMP180;10210;52.284;9.892;2023-07-28T05:00:37;99381.00;;;22.40
20103;BMP180;10210;52.284;9.892;2023-07-28T05:03:03;99387.00;;;22.40
20103;BMP180;10210;52.284;9.892;2023-07-28T05:05:29;99388.00;;;22.50
20103;BMP180;10210;52.284;9.892;2023-07-28T05:07:55;99381.00;;;22.50
20103;BMP180;10210;52.284;9.892;2023-07-28T05:10:21;99396.00;;;22.50
20103;BMP180;10210;52.284;9.892;2023-07-28T05:12:47;99396.00;;;22.40
20103;BMP180;10210;52.284;9.892;2023-07-28T05:15:15;99399.00;;;22.40
20103;BMP180;10210;52.284;9.892;2023-07-28T05:17:41;99402.00;;;22.50
20103;BMP180;10210;52.284;9.892;2023-07-28T05:20:07;99404.00;;;22.50
20103;BMP180;10210;52.284;9.892;2023-07-28T05:22:33;99397.00;;;22.50
20103;BMP180;10210;52.284;9.892;2023-07-28T05:24:58;99403.00;;;22.50
20103;BMP180;10210;52.284;9.892;2023-07-28T05:27:24;99403.00;;;22.40
20103;BMP180;10210;52.284;9.892;2023-07-28T05:29:50;99415.00;;;22.40
20103;BMP180;10210;52.284;9.892;2023-07-28T05:32:16;99413.00;;;22.50
20103;BMP180;10210;52.284;9.892;2023-07-28T05:34:42;99409.00;;;22.40
20103;BMP180;10210;52.284;9.892;2023-07-28T05:37:09;99413.00;;;22.40
20103;BMP180;10210;52.284;9.892;2023-07-28T05:39:34;99421.00;;;22.40
20103;BMP180;10210;52.284;9.892;2023-07-28T05:42:00;99416.00;;;22.40
20103;BMP180;10210;52.284;9.892;2023-07-28T05:44:26;99420.00;;;22.40
20103;BMP180;10210;52.284;9.892;2023-07-28T05:46:51;99427.00;;;22.50
20103;BMP180;10210;52.284;9.892;2023-07-28T05:49:17;99425.00;;;22.40
20103;BMP180;10210;52.284;9.892;2023-07-28T05:51:42;99425.00;;;22.50
20103;BMP180;10210;52.284;9.892;2023-07-28T05:54:08;99421.00;;;22.50
20103;BMP180;10210;52.284;9.892;2023-07-28T05:56:34;99431.00;;;22.50
20103;BMP180;10210;52.284;9.892;2023-07-28T05:58:59;99434.00;;;22.50
20103;BMP180;10210;52.284;9.892;2023-07-28T06:01:25;99428.00;;;22.50
20103;BMP180;10210;52.284;9.892;2023-07-28T06:03:52;99431.00;;;22.50
20103;BMP180;10210;52.284;9.892;2023-07-28T06:06:21;99430.00;;;22.50
20103;BMP180;10210;52.284;9.892;2023-07-28T06:08:47;99436.00;;;22.60
20103;BMP180;10210;52.284;9.892;2023-07-28T06:11:13;99427.00;;;22.60
20103;BMP180;10210;52.284;9.892;2023-07-28T06:13:38;99434.00;;;22.60
20103;BMP180;10210;52.284;9.892;2023-07-28T06:16:04;99434.00;;;22.60
20103;BMP180;10210;52.284;9.892;2023-07-28T06:18:30;99444.00;;;22.70
20103;BMP180;10210;52.284;9.892;2023-07-28T06:20:55;99443.00;;;22.70
20103;BMP180;10210;52.284;9.892;2023-07-28T06:23:21;99441.00;;;22.70
20103;BMP180;10210;52.284;9.892;2023-07-28T06:25:47;99444.00;;;22.70
20103;BMP180;10210;52.284;9.892;2023-07-28T06:28:13;99440.00;;;22.80
20103;BMP180;10210;52.284;9.892;2023-07-28T06:30:39;99448.00;;;22.80
20103;BMP180;10210;52.284;9.892;2023-07-28T06:33:06;99448.00;;;22.80
20103;BMP180;10210;52.284;9.892;2023-07-28T06:35:32;99450.00;;;22.80
20103;BMP180;10210;52.284;9.892;2023-07-28T06:38:01;99459.00;;;22.80
20103;BMP180;10210;52.284;9.892;2023-07-28T06:40:28;99462.00;;;22.80
20103;BMP180;10210;52.284;9.892;2023-07-28T06:42:53;99458.00;;;22.80
20103;BMP180;10210;52.284;9.892;2023-07-28T06:45:20;99465.00;;;22.80
20103;BMP180;10210;52.284;9.892;2023-07-28T06:47:46;99464.00;;;22.80
20103;BMP180;10210;52.284;9.892;2023-07-28T06:50:12;99465.00;;;22.80
20103;BMP180;10210;52.284;9.892;2023-07-28T06:52:38;99471.00;;;22.80
20103;BMP180;10210;52.284;9.892;2023-07-28T06:55:04;99479.00;;;22.80
20103;BMP180;10210;52.284;9.892;2023-07-28T06:57:30;99476.00;;;22.80
20103;BMP180;10210;52.284;9.892;2023-07-28T07:00:00;99489.00;;;22.80
20103;BMP180;10210;52.284;9.892;2023-07-28T07:02:26;99482.00;;;22.80
20103;BMP180;10210;52.284;9.892;2023-07-28T07:04:51;99484.00;;;22.80
20103;BMP180;10210;52.284;9.892;2023-07-28T07:07:17;99486.00;;;22.70
20103;BMP180;10210;52.284;9.892;2023-07-28T07:09:43;99488.00;;;22.70
20103;BMP180;10210;52.284;9.892;2023-07-28T07:12:09;99495.00;;;22.80
20103;BMP180;10210;52.284;9.892;2023-07-28T07:14:35;99490.00;;;22.80
20103;BMP180;10210;52.284;9.892;2023-07-28T07:17:01;99497.00;;;22.80
20103;BMP180;10210;52.284;9.892;2023-07-28T07:19:30;99498.00;;;22.80
20103;BMP180;10210;52.284;9.892;2023-07-28T07:21:56;99497.00;;;22.80
20103;BMP180;10210;52.284;9.892;2023-07-28T07:24:22;99497.00;;;22.80
20103;BMP180;10210;52.284;9.892;2023-07-28T07:26:47;99502.00;;;22.80
20103;BMP180;10210;52.284;9.892;2023-07-28T07:29:13;99506.00;;;22.90
20103;BMP180;10210;52.284;9.892;2023-07-28T07:31:39;99505.00;;;22.90
20103;BMP180;10210;52.284;9.892;2023-07-28T07:34:04;99519.00;;;22.90
20103;BMP180;10210;52.284;9.892;2023-07-28T07:36:31;99511.00;;;23.00
20103;BMP180;10210;52.284;9.892;2023-07-28T07:38:57;99510.00;;;23.00
20103;BMP180;10210;52.284;9.892;2023-07-28T07:41:23;99510.00;;;23.00
20103;BMP180;10210;52.284;9.892;2023-07-28T07:43:52;99523.00;;;23.10
20103;BMP180;10210;52.284;9.892;2023-07-28T07:46:19;99513.00;;;23.20
20103;BMP180;10210;52.284;9.892;2023-07-28T07:48:45;99510.00;;;23.20
20103;BMP180;10210;52.284;9.892;2023-07-28T07:51:12;99518.00;;;23.20
20103;BMP180;10210;52.284;9.892;2023-07-28T07:53:37;99515.00;;;23.30
20103;BMP180;10210;52.284;9.892;2023-07-28T07:56:04;99523.00;;;23.40
20103;BMP180;10210;52.284;9.892;2023-07-28T07:58:30;99524.00;;;23.40
20103;BMP180;10210;52.284;9.892;2023-07-28T08:00:56;99518.00;;;23.50
20103;BMP180;10210;52.284;9.892;2023-07-28T08:03:22;99523.00;;;23.60
20103;BMP180;10210;52.284;9.892;2023-07-28T08:05:48;99526.00;;;23.60
20103;BMP180;10210;52.284;9.892;2023-07-28T08:08:14;99526.00;;;23.60
20103;BMP180;10210;52.284;9.892;2023-07-28T08:10:47;99532.00;;;23.70
20103;BMP180;10210;52.284;9.892;2023-07-28T08:13:14;99534.00;;;23.70
20103;BMP180;10210;52.284;9.892;2023-07-28T08:15:39;99537.00;;;23.80
20103;BMP180;10210;52.284;9.892;2023-07-28T08:18:05;99536.00;;;23.90
20103;BMP180;10210;52.284;9.892;2023-07-28T08:20:31;99543.00;;;23.90
20103;BMP180;10210;52.284;9.892;2023-07-28T08:22:56;99544.00;;;23.90
20103;BMP180;10210;52.284;9.892;2023-07-28T08:25:22;99543.00;;;24.00
20103;BMP180;10210;52.284;9.892;2023-07-28T08:27:49;99552.00;;;24.00
20103;BMP180;10210;52.284;9.892;2023-07-28T08:30:15;99553.00;;;24.00
20103;BMP180;10210;52.284;9.892;2023-07-28T08:32:42;99566.00;;;24.10
20103;BMP180;10210;52.284;9.892;2023-07-28T08:35:09;99552.00;;;24.10
20103;BMP180;10210;52.284;9.892;2023-07-28T08:37:35;99556.00;;;24.10
20103;BMP180;10210;52.284;9.892;2023-07-28T08:40:02;99552.00;;;24.20
20103;BMP180;10210;52.284;9.892;2023-07-28T08:42:34;99555.00;;;24.20
20103;BMP180;10210;52.284;9.892;2023-07-28T08:45:02;99555.00;;;24.30
20103;BMP180;10210;52.284;9.892;2023-07-28T08:47:30;99554.00;;;24.40
20103;BMP180;10210;52.284;9.892;2023-07-28T08:49:57;99568.00;;;24.40
20103;BMP180;10210;52.284;9.892;2023-07-28T08:52:22;99567.00;;;24.50
20103;BMP180;10210;52.284;9.892;2023-07-28T08:54:50;99570.00;;;24.50
20103;BMP180;10210;52.284;9.892;2023-07-28T08:57:15;99564.00;;;24.50
20103;BMP180;10210;52.284;9.892;2023-07-28T08:59:42;99571.00;;;24.50
20103;BMP180;10210;52.284;9.892;2023-07-28T09:02:15;99570.00;;;24.50
20103;BMP180;10210;52.284;9.892;2023-07-28T09:04:43;99576.00;;;24.50
20103;BMP180;10210;52.284;9.892;2023-07-28T09:07:08;99567.00;;;24.50
20103;BMP180;10210;52.284;9.892;2023-07-28T09:09:35;99572.00;;;24.60
20103;BMP180;10210;52.284;9.892;2023-07-28T09:12:04;99582.00;;;24.60
20103;BMP180;10210;52.284;9.892;2023-07-28T09:14:30;99584.00;;;24.60
20103;BMP180;10210;52.284;9.892;2023-07-28T09:17:14;99578.00;;;24.60
20103;BMP180;10210;52.284;9.892;2023-07-28T09:19:56;99579.00;;;24.60
20103;BMP180;10210;52.284;9.892;2023-07-28T09:22:22;99580.00;;;24.70
20103;BMP180;10210;52.284;9.892;2023-07-28T09:24:50;99583.00;;;24.70
20103;BMP180;10210;52.284;9.892;2023-07-28T09:27:26;99585.00;;;25.30
20103;BMP180;10210;52.284;9.892;2023-07-28T09:29:55;99582.00;;;25.20
20103;BMP180;10210;52.284;9.892;2023-07-28T09:32:32;99587.00;;;25.30
20103;BMP180;10210;52.284;9.892;2023-07-28T09:35:13;99584.00;;;25.40
20103;BMP180;10210;52.284;9.892;2023-07-28T09:37:50;99582.00;;;25.50
20103;BMP180;10210;52.284;9.892;2023-07-28T09:40:22;99589.00;;;25.70
20103;BMP180;10210;52.284;9.892;2023-07-28T09:42:49;99593.00;;;25.80
20103;BMP180;10210;52.284;9.892;2023-07-28T09:45:17;99589.00;;;25.90
20103;BMP180;10210;52.284;9.892;2023-07-28T09:47:48;99589.00;;;26.00
20103;BMP180;10210;52.284;9.892;2023-07-28T09:50:18;99592.00;;;26.00
20103;BMP180;10210;52.284;9.892;2023-07-28T09:52:49;99588.00;;;26.00
20103;BMP180;10210;52.284;9.892;2023-07-28T09:55:18;99594.00;;;26.00
20103;BMP180;10210;52.284;9.892;2023-07-28T09:57:51;99591.00;;;26.10
20103;BMP180;10210;52.284;9.892;2023-07-28T10:00:18;99589.00;;;26.10
20103;BMP180;10210;52.284;9.892;2023-07-28T10:02:45;99593.00;;;26.20
20103;BMP180;10210;52.284;9.892;2023-07-28T10:05:11;99597.00;;;26.30
20103;BMP180;10210;52.284;9.892;2023-07-28T10:07:42;99594.00;;;26.40
20103;BMP180;10210;52.284;9.892;2023-07-28T10:10:13;99594.00;;;26.50
20103;BMP180;10210;52.284;9.892;2023-07-28T10:12:46;99591.00;;;26.50
20103;BMP180;10210;52.284;9.892;2023-07-28T10:15:15;99593.00;;;26.60
20103;BMP180;10210;52.284;9.892;2023-07-28T10:17:47;99598.00;;;26.60
20103;BMP180;10210;52.284;9.892;2023-07-28T10:20:39;99600.00;;;26.50
20103;BMP180;10210;52.284;9.892;2023-07-28T10:23:17;99604.00;;;26.70
20103;BMP180;10210;52.284;9.892;2023-07-28T10:25:45;99602.00;;;26.70
20103;BMP180;10210;52.284;9.892;2023-07-28T10:28:37;99612.00;;;26.70
20103;BMP180;10210;52.284;9.892;2023-07-28T10:31:11;99600.00;;;26.90
20103;BMP180;10210;52.284;9.892;2023-07-28T10:33:45;99616.00;;;26.90
20103;BMP180;10210;52.284;9.892;2023-07-28T10:41:29;99625.00;;;27.10
20103;BMP180;10210;52.284;9.892;2023-07-28T10:43:58;99619.00;;;27.10
20103;BMP180;10210;52.284;9.892;2023-07-28T10:46:23;99621.00;;;27.20
20103;BMP180;10210;52.284;9.892;2023-07-28T10:48:50;99614.00;;;27.20
20103;BMP180;10210;52.284;9.892;2023-07-28T10:51:26;99616.00;;;27.20
20103;BMP180;10210;52.284;9.892;2023-07-28T10:53:59;99619.00;;;27.30
20103;BMP180;10210;52.284;9.892;2023-07-28T10:56:26;99617.00;;;27.30
20103;BMP180;10210;52.284;9.892;2023-07-28T10:59:00;99624.00;;;27.30
20103;BMP180;10210;52.284;9.892;2023-07-28T11:01:40;99624.00;;;27.30
20103;BMP180;10210;52.284;9.892;2023-07-28T11:04:18;99632.00;;;27.30
20103;BMP180;10210;52.284;9.892;2023-07-28T11:06:49;99630.00;;;27.30
20103;BMP180;10210;52.284;9.892;2023-07-28T11:09:18;99621.00;;;27.40
20103;BMP180;10210;52.284;9.892;2023-07-28T11:11:45;99621.00;;;27.40
20103;BMP180;10210;52.284;9.892;2023-07-28T11:14:11;99627.00;;;27.50
20103;BMP180;10210;52.284;9.892;2023-07-28T11:16:41;99620.00;;;27.60
20103;BMP180;10210;52.284;9.892;2023-07-28T11:19:09;99622.00;;;27.70
20103;BMP180;10210;52.284;9.892;2023-07-28T11:21:41;99626.00;;;27.80
20103;BMP180;10210;52.284;9.892;2023-07-28T11:24:08;99625.00;;;27.90
20103;BMP180;10210;52.284;9.892;2023-07-28T11:26:38;99630.00;;;28.00
20103;BMP180;10210;52.284;9.892;2023-07-28T11:29:05;99625.00;;;28.10
20103;BMP180;10210;52.284;9.892;2023-07-28T11:31:31;99625.00;;;28.10
20103;BMP180;10210;52.284;9.892;2023-07-28T11:33:58;99627.00;;;28.10
20103;BMP180;10210;52.284;9.892;2023-07-28T11:36:30;99625.00;;;28.20
20103;BMP180;10210;52.284;9.892;2023-07-28T11:38:59;99629.00;;;28.20
20103;BMP180;10210;52.284;9.892;2023-07-28T11:41:27;99633.00;;;28.10
20103;BMP180;10210;52.284;9.892;2023-07-28T11:43:53;99631.00;;;28.10
20103;BMP180;10210;52.284;9.892;2023-07-28T11:46:42;99637.00;;;28.00
20103;BMP180;10210;52.284;9.892;2023-07-28T11:49:20;99633.00;;;28.00
20103;BMP180;10210;52.284;9.892;2023-07-28T11:51:53;99630.00;;;28.00
20103;BMP180;10210;52.284;9.892;2023-07-28T11:54:24;99639.00;;;28.00
20103;BMP180;10210;52.284;9.892;2023-07-28T11:56:53;99637.00;;;28.10
20103;BMP180;10210;52.284;9.892;2023-07-28T11:59:20;99637.00;;;28.10
20103;BMP180;10210;52.284;9.892;2023-07-28T12:01:57;99632.00;;;28.10
20103;BMP180;10210;52.284;9.892;2023-07-28T12:04:29;99637.00;;;28.20
20103;BMP180;10210;52.284;9.892;2023-07-28T12:07:12;99639.00;;;28.20
20103;BMP180;10210;52.284;9.892;2023-07-28T12:12:29;99647.00;;;28.30
20103;BMP180;10210;52.284;9.892;2023-07-28T12:14:58;99650.00;;;28.40
20103;BMP180;10210;52.284;9.892;2023-07-28T12:17:30;99649.00;;;28.40
20103;BMP180;10210;52.284;9.892;2023-07-28T12:20:07;99645.00;;;28.50
20103;BMP180;10210;52.284;9.892;2023-07-28T12:22:44;99651.00;;;28.60
20103;BMP180;10210;52.284;9.892;2023-07-28T12:25:11;99648.00;;;28.70
20103;BMP180;10210;52.284;9.892;2023-07-28T12:27:37;99644.00;;;28.80
20103;BMP180;10210;52.284;9.892;2023-07-28T12:30:04;99651.00;;;28.90
20103;BMP180;10210;52.284;9.892;2023-07-28T12:32:30;99647.00;;;28.90
20103;BMP180;10210;52.284;9.892;2023-07-28T12:34:56;99662.00;;;29.00
20103;BMP180;10210;52.284;9.892;2023-07-28T12:37:22;99662.00;;;29.00
20103;BMP180;10210;52.284;9.892;2023-07-28T12:39:48;99666.00;;;29.00
20103;BMP180;10210;52.284;9.892;2023-07-28T12:42:14;99659.00;;;29.10
20103;BMP180;10210;52.284;9.892;2023-07-28T12:44:41;99666.00;;;29.10
20103;BMP180;10210;52.284;9.892;2023-07-28T12:47:07;99670.00;;;29.10
20103;BMP180;10210;52.284;9.892;2023-07-28T12:49:33;99674.00;;;29.20
20103;BMP180;10210;52.284;9.892;2023-07-28T12:52:05;99677.00;;;29.20
20103;BMP180;10210;52.284;9.892;2023-07-28T12:54:35;99667.00;;;29.20
20103;BMP180;10210;52.284;9.892;2023-07-28T12:57:00;99672.00;;;29.30
20103;BMP180;10210;52.284;9.892;2023-07-28T12:59:27;99679.00;;;29.30
20103;BMP180;10210;52.284;9.892;2023-07-28T13:01:55;99682.00;;;29.20
20103;BMP180;10210;52.284;9.892;2023-07-28T13:04:20;99678.00;;;29.30
20103;BMP180;10210;52.284;9.892;2023-07-28T13:06:46;99672.00;;;29.30
20103;BMP180;10210;52.284;9.892;2023-07-28T13:09:12;99684.00;;;29.30
20103;BMP180;10210;52.284;9.892;2023-07-28T13:11:38;99688.00;;;29.40
20103;BMP180;10210;52.284;9.892;2023-07-28T13:14:03;99685.00;;;29.40
20103;BMP180;10210;52.284;9.892;2023-07-28T13:16:29;99687.00;;;29.40
20103;BMP180;10210;52.284;9.892;2023-07-28T13:18:55;99690.00;;;29.40
20103;BMP180;10210;52.284;9.892;2023-07-28T13:21:22;99695.00;;;29.40
20103;BMP180;10210;52.284;9.892;2023-07-28T13:23:47;99700.00;;;29.40
20103;BMP180;10210;52.284;9.892;2023-07-28T13:26:13;99702.00;;;29.30
20103;BMP180;10210;52.284;9.892;2023-07-28T13:28:39;99705.00;;;29.40
20103;BMP180;10210;52.284;9.892;2023-07-28T13:31:08;99687.00;;;29.40
20103;BMP180;10210;52.284;9.892;2023-07-28T13:33:34;99685.00;;;29.40
20103;BMP180;10210;52.284;9.892;2023-07-28T13:35:59;99687.00;;;29.30
20103;BMP180;10210;52.284;9.892;2023-07-28T13:38:25;99683.00;;;29.40
20103;BMP180;10210;52.284;9.892;2023-07-28T13:40:51;99675.00;;;29.40
20103;BMP180;10210;52.284;9.892;2023-07-28T13:43:16;99670.00;;;29.50
20103;BMP180;10210;52.284;9.892;2023-07-28T13:45:42;99672.00;;;29.50
20103;BMP180;10210;52.284;9.892;2023-07-28T13:48:08;99676.00;;;29.60
20103;BMP180;10210;52.284;9.892;2023-07-28T13:50:33;99684.00;;;29.70
20103;BMP180;10210;52.284;9.892;2023-07-28T13:52:59;99681.00;;;29.70
20103;BMP180;10210;52.284;9.892;2023-07-28T13:55:25;99683.00;;;29.80
20103;BMP180;10210;52.284;9.892;2023-07-28T13:57:50;99684.00;;;29.90
20103;BMP180;10210;52.284;9.892;2023-07-28T14:00:16;99685.00;;;30.00
20103;BMP180;10210;52.284;9.892;2023-07-28T14:02:42;99682.00;;;30.10
20103;BMP180;10210;52.284;9.892;2023-07-28T14:05:08;99689.00;;;30.20
20103;BMP180;10210;52.284;9.892;2023-07-28T14:07:34;99694.00;;;30.20
20103;BMP180;10210;52.284;9.892;2023-07-28T14:10:01;99687.00;;;30.30
20103;BMP180;10210;52.284;9.892;2023-07-28T14:12:27;99686.00;;;30.30
20103;BMP180;10210;52.284;9.892;2023-07-28T14:14:52;99678.00;;;30.30
20103;BMP180;10210;52.284;9.892;2023-07-28T14:17:18;99678.00;;;30.40
20103;BMP180;10210;52.284;9.892;2023-07-28T14:19:44;99682.00;;;30.40